Time;durP1;ratioP1;P1;durP2;ratioP2;P2;SDS_P1;SDS_P2;PMS_P1;PMS_P2;Temp;Humidity;BMP_temperature;BMP_pressure;BME280_temperature;BME280_humidity;BME280_pressure;Samples;Min_cycle;Max_cycle;Signal;HPM_P1;HPM_P2
2022/05/12 00:02:01;;;;;;;11.00;7.85;;;17.00;96.10;;;;;;4956719;28;20027;-74
2022/05/12 00:04:28;;;;;;;9.05;8.15;;;16.90;96.00;;;;;;4957793;28;20514;-74
2022/05/12 00:06:54;;;;;;;9.90;8.25;;;17.00;96.10;;;;;;4949454;28;20036;-74
2022/05/12 00:09:21;;;;;;;11.20;9.30;;;17.00;96.20;;;;;;4949762;28;20043;-74
2022/05/12 00:11:46;;;;;;;15.00;9.73;;;17.00;96.30;;;;;;4948078;28;20046;-74
2022/05/12 00:14:13;;;;;;;10.90;8.88;;;17.10;96.30;;;;;;4955286;28;20023;-74
2022/05/12 00:16:39;;;;;;;11.93;9.07;;;17.10;96.30;;;;;;4954879;28;20035;-74
2022/05/12 00:19:04;;;;;;;11.07;9.02;;;17.10;96.30;;;;;;4954084;28;20184;-74
2022/05/12 00:21:30;;;;;;;11.30;8.77;;;17.10;96.40;;;;;;4959715;28;20046;-74
2022/05/12 00:23:56;;;;;;;11.75;8.80;;;17.10;96.40;;;;;;4949857;28;20028;-74
2022/05/12 00:26:30;;;;;;;9.07;8.18;;;17.20;96.40;;;;;;4952165;28;20391;-75
2022/05/12 00:28:57;;;;;;;9.88;8.38;;;17.20;96.60;;;;;;4949533;28;20042;-74
2022/05/12 00:31:25;;;;;;;10.43;8.63;;;17.30;96.20;;;;;;4955474;28;20138;-74
2022/05/12 00:33:50;;;;;;;8.48;7.68;;;17.30;96.00;;;;;;4950680;28;20027;-74
2022/05/12 00:36:17;;;;;;;13.23;7.78;;;17.30;95.90;;;;;;4947715;28;20038;-74
2022/05/12 00:38:42;;;;;;;12.35;8.73;;;17.30;96.00;;;;;;4954312;28;20510;-74
2022/05/12 00:41:08;;;;;;;11.40;8.18;;;17.40;95.90;;;;;;4953337;28;20038;-74
2022/05/12 00:43:40;;;;;;;10.30;8.52;;;17.40;95.90;;;;;;4951044;28;20031;-74
2022/05/12 00:46:10;;;;;;;10.63;8.60;;;17.40;96.00;;;;;;4952438;28;20083;-74
2022/05/12 00:48:37;;;;;;;10.32;9.23;;;17.50;95.90;;;;;;4953023;28;20031;-74
2022/05/12 00:51:04;;;;;;;12.90;8.75;;;17.50;95.80;;;;;;4952448;28;20045;-74
2022/05/12 00:53:35;;;;;;;10.43;9.38;;;17.50;95.90;;;;;;4947326;28;20645;-74
2022/05/12 00:56:03;;;;;;;11.30;10.02;;;17.50;95.90;;;;;;4950657;28;20053;-74
2022/05/12 00:58:33;;;;;;;15.98;10.00;;;17.50;95.90;;;;;;4955902;28;20042;-73
2022/05/12 01:01:03;;;;;;;14.40;10.38;;;17.50;95.90;;;;;;4953738;28;20118;-74
2022/05/12 01:03:30;;;;;;;10.52;8.82;;;17.50;95.80;;;;;;4955118;28;20050;-73
2022/05/12 01:05:56;;;;;;;12.10;9.18;;;17.60;95.80;;;;;;4953117;28;20572;-74
2022/05/12 01:08:22;;;;;;;11.25;9.48;;;17.60;95.80;;;;;;4942904;28;20047;-74
2022/05/12 01:11:09;;;;;;;13.13;9.82;;;17.60;95.80;;;;;;4944643;28;20042;-74
2022/05/12 01:13:35;;;;;;;13.52;9.70;;;17.60;95.80;;;;;;4952608;28;20224;-74
2022/05/12 01:16:02;;;;;;;11.57;10.00;;;17.60;95.70;;;;;;4955239;28;20039;-74
2022/05/12 01:18:30;;;;;;;18.85;11.15;;;17.70;95.70;;;;;;4953799;28;20798;-74
2022/05/12 01:20:57;;;;;;;16.58;10.50;;;17.70;95.70;;;;;;4955667;28;20031;-75
2022/05/12 01:23:36;;;;;;;14.88;9.05;;;17.70;95.70;;;;;;4956146;28;20061;-74
2022/05/12 01:26:06;;;;;;;8.65;7.75;;;17.60;95.90;;;;;;4946287;28;20444;-74
2022/05/12 01:28:31;;;;;;;11.95;8.13;;;17.40;96.00;;;;;;4946905;28;20459;-74
2022/05/12 01:30:57;;;;;;;11.55;7.90;;;17.30;96.00;;;;;;4955176;28;20046;-74
2022/05/12 01:33:26;;;;;;;9.65;7.78;;;17.30;96.20;;;;;;4954565;28;20054;-74
2022/05/12 01:35:52;;;;;;;10.95;7.15;;;17.20;96.30;;;;;;4956467;28;20035;-74
2022/05/12 01:38:18;;;;;;;11.02;7.78;;;17.20;96.40;;;;;;4957414;28;20039;-74
2022/05/12 01:40:44;;;;;;;7.65;6.63;;;17.20;96.30;;;;;;4950673;28;20030;-74
2022/05/12 01:43:15;;;;;;;7.97;6.40;;;17.10;96.10;;;;;;4947014;28;20808;-74
2022/05/12 01:45:41;;;;;;;6.95;5.13;;;17.10;96.10;;;;;;4947946;28;20042;-74
2022/05/12 01:48:11;;;;;;;12.07;5.65;;;17.00;95.90;;;;;;4950079;28;20034;-73
2022/05/12 01:50:38;;;;;;;9.48;5.20;;;17.00;95.30;;;;;;4958371;28;20034;-74
2022/05/12 01:53:04;;;;;;;7.38;5.20;;;16.90;95.40;;;;;;4952716;28;20760;-74
2022/05/12 01:55:30;;;;;;;8.40;5.35;;;16.90;95.20;;;;;;4961847;28;20042;-74
2022/05/12 01:57:57;;;;;;;6.05;4.65;;;16.90;95.00;;;;;;4952709;28;20034;-74
2022/05/12 02:00:26;;;;;;;7.85;4.90;;;16.90;94.90;;;;;;4956398;28;20097;-74
2022/05/12 02:02:53;;;;;;;5.53;4.68;;;16.90;94.90;;;;;;4953126;28;20154;-74
2022/05/12 02:05:19;;;;;;;8.25;5.05;;;16.90;94.80;;;;;;4955748;28;20718;-74
2022/05/12 02:07:47;;;;;;;6.30;4.43;;;16.90;94.70;;;;;;4955321;28;20042;-73
2022/05/12 02:10:20;;;;;;;4.50;3.70;;;17.00;94.10;;;;;;4950582;28;20023;-74
2022/05/12 02:12:46;;;;;;;10.35;4.40;;;17.00;94.10;;;;;;4950200;28;20023;-73
2022/05/12 02:15:13;;;;;;;6.07;4.05;;;17.00;93.90;;;;;;4953980;28;20039;-74
2022/05/12 02:17:38;;;;;;;8.70;4.05;;;17.10;94.00;;;;;;4954912;28;20026;-74
2022/05/12 02:20:05;;;;;;;7.88;4.20;;;17.10;93.70;;;;;;4957432;28;20113;-74
2022/05/12 02:22:31;;;;;;;8.68;3.70;;;17.10;93.50;;;;;;4959620;28;20121;-74
2022/05/12 02:24:59;;;;;;;6.90;3.88;;;17.10;93.50;;;;;;4960866;28;20814;-74
2022/05/12 02:27:24;;;;;;;6.40;4.32;;;17.10;93.70;;;;;;4960120;28;20049;-74
2022/05/12 02:29:50;;;;;;;7.10;4.22;;;17.00;94.10;;;;;;4961243;28;20031;-74
2022/05/12 02:32:16;;;;;;;8.00;4.43;;;17.00;94.10;;;;;;4956084;28;20027;-73
2022/05/12 02:34:41;;;;;;;11.32;4.35;;;16.90;94.00;;;;;;4956219;28;20801;-73
2022/05/12 02:37:08;;;;;;;10.02;5.57;;;16.80;94.30;;;;;;4957988;28;20038;-74
2022/05/12 02:39:43;;;;;;;15.90;4.93;;;16.60;94.70;;;;;;4957373;28;20035;-73
2022/05/12 02:42:10;;;;;;;6.60;3.53;;;16.50;95.10;;;;;;4955677;28;20042;-73
2022/05/12 02:44:36;;;;;;;8.57;3.97;;;16.40;95.30;;;;;;4952783;28;20035;-74
2022/05/12 02:47:03;;;;;;;7.57;4.82;;;16.30;95.30;;;;;;4936096;28;20034;-73
2022/05/12 02:49:29;;;;;;;9.48;5.15;;;16.20;95.60;;;;;;4964045;28;20533;-72
2022/05/12 02:51:55;;;;;;;13.25;4.97;;;16.20;95.80;;;;;;4956466;28;20027;-72
2022/05/12 02:54:21;;;;;;;11.90;4.63;;;16.10;95.80;;;;;;4943729;28;20026;-73
2022/05/12 02:56:47;;;;;;;7.07;4.45;;;16.10;96.00;;;;;;4958110;28;20171;-72
2022/05/12 02:59:13;;;;;;;8.75;4.75;;;16.10;96.00;;;;;;4957785;28;20039;-73
2022/05/12 03:01:39;;;;;;;9.52;4.82;;;16.10;96.00;;;;;;4954372;28;20031;-73
2022/05/12 03:04:05;;;;;;;12.85;5.57;;;16.10;96.10;;;;;;4957235;28;20877;-73
2022/05/12 03:06:31;;;;;;;10.30;4.85;;;16.10;96.20;;;;;;4958858;28;20035;-73
2022/05/12 03:08:58;;;;;;;9.45;4.82;;;16.10;96.20;;;;;;4957087;28;20023;-73
2022/05/12 03:11:24;;;;;;;11.85;5.07;;;16.00;96.20;;;;;;4960198;28;20619;-73
2022/05/12 03:13:50;;;;;;;8.88;5.18;;;16.00;96.30;;;;;;4956136;28;20041;-73
2022/05/12 03:16:20;;;;;;;15.00;5.30;;;16.00;96.40;;;;;;4953085;28;20027;-73
2022/05/12 03:18:47;;;;;;;9.32;5.07;;;16.10;96.30;;;;;;4957183;28;20149;-71
2022/05/12 03:21:16;;;;;;;10.25;5.28;;;16.10;96.30;;;;;;4956848;28;20838;-72
2022/05/12 03:23:42;;;;;;;11.07;5.63;;;16.00;96.30;;;;;;4956849;28;20089;-72
2022/05/12 03:26:09;;;;;;;8.85;5.10;;;16.10;96.30;;;;;;4960404;28;20039;-72
2022/05/12 03:28:36;;;;;;;9.18;4.85;;;16.00;96.20;;;;;;4960569;28;20873;-71
2022/05/12 03:31:02;;;;;;;8.43;4.90;;;16.00;96.30;;;;;;4958571;28;20578;-72
2022/05/12 03:33:28;;;;;;;7.75;5.35;;;16.00;96.40;;;;;;4953559;28;20130;-72
2022/05/12 03:35:54;;;;;;;10.77;5.25;;;16.00;96.30;;;;;;4936945;28;20074;-72
2022/05/12 03:38:20;;;;;;;12.57;5.47;;;16.00;96.30;;;;;;4954431;28;20069;-72
2022/05/12 03:40:46;;;;;;;8.35;5.05;;;16.00;96.20;;;;;;4956950;28;20030;-72
2022/05/12 03:44:46;;;;;;;7.95;4.90;;;16.00;96.20;;;;;;4957973;28;20038;-72
2022/05/12 03:45:59;;;;;;;13.57;5.68;;;16.00;96.30;;;;;;4952193;28;20118;-72
2022/05/12 03:48:25;;;;;;;10.10;4.80;;;16.00;96.10;;;;;;4957663;28;20038;-72
2022/05/12 03:50:50;;;;;;;12.80;5.10;;;16.00;95.90;;;;;;4955298;28;20035;-72
2022/05/12 03:53:16;;;;;;;16.13;5.53;;;16.00;96.00;;;;;;4954247;28;20030;-72
2022/05/12 03:55:42;;;;;;;13.07;5.18;;;16.00;95.80;;;;;;4953161;28;20042;-72
2022/05/12 03:58:08;;;;;;;7.93;4.40;;;16.00;95.60;;;;;;4956604;28;20037;-72
2022/05/12 04:00:35;;;;;;;14.52;4.70;;;16.00;95.50;;;;;;4953877;28;20037;-72
2022/05/12 04:03:01;;;;;;;7.68;4.30;;;16.00;95.50;;;;;;4949724;28;20038;-73
2022/05/12 04:05:31;;;;;;;8.38;3.78;;;16.00;95.40;;;;;;4956059;28;20043;-72
2022/05/12 04:08:00;;;;;;;11.25;4.40;;;16.10;95.00;;;;;;4954961;28;20130;-72
2022/05/12 04:10:26;;;;;;;8.80;3.85;;;16.10;94.90;;;;;;4959237;28;20444;-73
2022/05/12 04:12:53;;;;;;;4.32;3.50;;;16.10;94.60;;;;;;4953685;28;20126;-72
2022/05/12 04:15:20;;;;;;;8.05;3.40;;;16.10;94.30;;;;;;4953956;28;20043;-72
2022/05/12 04:18:02;;;;;;;9.32;3.80;;;16.10;94.50;;;;;;4956847;28;20029;-73
2022/05/12 04:20:31;;;;;;;6.30;3.53;;;16.10;94.40;;;;;;4951481;28;20077;-72
2022/05/12 04:22:57;;;;;;;7.85;3.95;;;16.10;94.40;;;;;;4958701;28;20030;-72
2022/05/12 04:25:23;;;;;;;6.45;3.50;;;16.20;94.40;;;;;;4957959;28;20468;-72
2022/05/12 04:27:49;;;;;;;8.02;3.67;;;16.20;94.40;;;;;;4955417;28;20038;-73
2022/05/12 04:30:17;;;;;;;6.85;3.67;;;16.20;93.80;;;;;;4955862;28;20042;-73
2022/05/12 04:32:43;;;;;;;10.73;4.15;;;16.20;93.60;;;;;;4953871;28;20852;-72
2022/05/12 04:35:16;;;;;;;11.27;3.72;;;16.10;93.90;;;;;;4956263;28;20039;-73
2022/05/12 04:37:46;;;;;;;7.80;4.32;;;16.20;94.10;;;;;;4950643;28;20511;-73
2022/05/12 04:40:24;;;;;;;15.20;3.78;;;16.40;94.10;;;;;;4956272;28;20058;-73
2022/05/12 04:42:52;;;;;;;6.32;2.90;;;16.80;93.40;;;;;;4953390;28;20062;-73
2022/05/12 04:45:19;;;;;;;7.00;3.90;;;16.90;92.50;;;;;;4957662;28;20487;-72
2022/05/12 04:47:46;;;;;;;6.93;3.22;;;16.80;92.40;;;;;;4960672;28;20033;-73
2022/05/12 04:50:18;;;;;;;7.70;3.67;;;16.80;92.50;;;;;;4954033;28;20546;-73
2022/05/12 04:52:45;;;;;;;12.32;3.53;;;16.80;92.30;;;;;;4950786;28;20031;-73
2022/05/12 04:55:11;;;;;;;6.15;3.63;;;16.80;92.10;;;;;;4953831;28;20026;-72
2022/05/12 04:57:38;;;;;;;7.15;3.40;;;16.60;92.10;;;;;;4956389;28;20912;-73
2022/05/12 05:00:06;;;;;;;9.13;3.38;;;16.70;92.20;;;;;;4953926;28;20118;-72
2022/05/12 05:02:32;;;;;;;7.88;3.08;;;16.70;92.20;;;;;;4955128;28;20113;-72
2022/05/12 05:04:58;;;;;;;4.95;2.97;;;16.80;91.90;;;;;;4956280;28;20109;-72
2022/05/12 05:07:26;;;;;;;10.77;3.50;;;16.90;91.80;;;;;;4950277;28;20031;-72
2022/05/12 05:09:52;;;;;;;7.82;3.30;;;17.00;91.20;;;;;;4956591;28;20468;-73
2022/05/12 05:12:18;;;;;;;4.45;2.85;;;17.00;90.50;;;;;;4949123;28;20039;-73
2022/05/12 05:14:44;;;;;;;5.38;2.47;;;17.10;90.70;;;;;;4956102;28;20042;-72
2022/05/12 05:17:10;;;;;;;4.97;2.38;;;17.60;87.50;;;;;;4949831;28;20034;-72
2022/05/12 05:19:35;;;;;;;4.70;2.25;;;18.00;87.20;;;;;;4951477;28;20632;-72
2022/05/12 05:22:01;;;;;;;6.60;2.35;;;18.40;84.20;;;;;;4952616;28;20980;-73
2022/05/12 05:24:29;;;;;;;4.05;1.90;;;18.50;82.60;;;;;;4935714;28;20027;-72
2022/05/12 05:26:55;;;;;;;5.60;1.67;;;18.50;82.30;;;;;;4931557;28;20061;-72
2022/05/12 05:29:21;;;;;;;3.20;1.80;;;18.40;80.90;;;;;;4935468;28;20082;-72
2022/05/12 05:31:47;;;;;;;5.65;1.80;;;18.20;82.30;;;;;;4956530;28;20042;-72
2022/05/12 05:34:12;;;;;;;3.40;1.70;;;18.50;82.00;;;;;;4953923;28;20039;-72
2022/05/12 05:36:42;;;;;;;3.55;1.30;;;18.70;79.20;;;;;;4949843;28;20074;-72
2022/05/12 05:39:08;;;;;;;3.05;1.20;;;18.90;77.80;;;;;;4949453;28;20082;-72
2022/05/12 05:41:35;;;;;;;2.03;0.98;;;19.10;72.90;;;;;;4957196;28;20035;-71
2022/05/12 05:44:01;;;;;;;3.38;1.23;;;19.30;73.00;;;;;;4955209;28;20113;-72
2022/05/12 05:46:27;;;;;;;2.10;0.95;;;18.90;72.80;;;;;;4953688;28;20248;-71
2022/05/12 05:48:53;;;;;;;1.42;0.98;;;18.60;71.10;;;;;;4935749;28;20035;-72
2022/05/12 05:54:03;;;;;;;4.03;1.45;;;18.80;70.10;;;;;;4952599;28;20043;-73
2022/05/12 05:56:29;;;;;;;3.33;1.02;;;19.00;71.40;;;;;;4942330;28;20031;-72
2022/05/12 05:58:55;;;;;;;1.30;0.60;;;19.10;70.40;;;;;;4957641;28;20133;-73
2022/05/12 06:01:20;;;;;;;5.45;1.00;;;19.20;69.70;;;;;;4952989;28;20053;-73
2022/05/12 06:03:46;;;;;;;3.80;1.00;;;19.30;67.70;;;;;;4958612;28;20034;-73
2022/05/12 06:06:12;;;;;;;4.03;0.90;;;19.20;67.20;;;;;;4958447;28;20066;-73
2022/05/12 06:08:38;;;;;;;3.58;0.88;;;19.00;67.00;;;;;;4950057;28;20042;-73
2022/05/12 06:11:04;;;;;;;6.95;1.00;;;18.50;69.50;;;;;;4953072;28;20046;-73
2022/05/12 06:13:34;;;;;;;3.72;0.80;;;18.10;71.80;;;;;;4958367;28;20027;-73
2022/05/12 06:16:02;;;;;;;6.07;0.75;;;17.80;73.90;;;;;;4952586;28;20394;-73
2022/05/12 06:18:29;;;;;;;2.85;1.42;;;17.50;73.20;;;;;;4954301;28;20049;-73
2022/05/12 06:20:54;;;;;;;3.40;0.82;;;17.20;74.00;;;;;;4957721;28;20093;-74
2022/05/12 06:23:20;;;;;;;3.22;1.00;;;17.30;74.80;;;;;;4956378;28;20039;-72
2022/05/12 06:25:46;;;;;;;2.30;0.93;;;17.30;74.20;;;;;;4948679;28;20031;-72
2022/05/12 06:28:12;;;;;;;2.63;0.68;;;17.30;74.30;;;;;;4955280;28;20031;-72
2022/05/12 06:30:39;;;;;;;3.03;0.90;;;17.30;75.90;;;;;;4952791;28;20564;-72
2022/05/12 06:33:05;;;;;;;3.25;0.88;;;17.40;74.80;;;;;;4955955;28;20034;-74
2022/05/12 06:35:32;;;;;;;7.45;0.60;;;17.50;74.30;;;;;;4950739;28;20070;-72
2022/05/12 06:37:58;;;;;;;3.72;0.80;;;17.60;73.70;;;;;;4959662;28;20035;-72
2022/05/12 06:40:23;;;;;;;2.30;0.90;;;17.80;73.70;;;;;;4964100;28;20051;-72
2022/05/12 06:42:50;;;;;;;4.40;0.90;;;18.10;71.70;;;;;;4962505;28;20775;-72
2022/05/12 06:45:19;;;;;;;2.30;0.70;;;18.40;71.10;;;;;;4954315;28;20035;-72
2022/05/12 06:47:48;;;;;;;1.92;0.60;;;18.70;68.30;;;;;;4961222;28;20082;-72
2022/05/12 06:50:17;;;;;;;6.43;1.05;;;18.90;67.80;;;;;;4959254;28;20600;-73
2022/05/12 06:52:43;;;;;;;2.75;0.80;;;19.20;67.40;;;;;;4959919;28;20029;-71
2022/05/12 06:55:10;;;;;;;3.15;0.47;;;19.50;65.40;;;;;;4956967;28;20725;-72
2022/05/12 06:57:36;;;;;;;2.45;0.57;;;19.80;64.40;;;;;;4954738;28;20049;-72
2022/05/12 07:00:04;;;;;;;4.68;0.68;;;19.80;64.20;;;;;;4957929;28;20154;-72
2022/05/12 07:02:30;;;;;;;1.25;0.82;;;19.60;63.40;;;;;;4956151;28;20321;-72
2022/05/12 07:04:57;;;;;;;3.50;0.55;;;19.30;65.10;;;;;;4955421;28;20042;-72
2022/05/12 07:07:23;;;;;;;1.13;0.63;;;18.90;66.10;;;;;;4958180;28;20042;-72
2022/05/12 07:09:52;;;;;;;2.92;0.65;;;18.60;65.70;;;;;;4953090;28;20030;-72
2022/05/12 07:12:19;;;;;;;2.47;0.50;;;18.50;65.00;;;;;;4947069;28;20616;-72
2022/05/12 07:14:45;;;;;;;1.38;0.68;;;18.50;66.50;;;;;;4959103;28;20038;-72
2022/05/12 07:17:11;;;;;;;2.30;0.80;;;18.40;65.00;;;;;;4958029;28;20047;-72
2022/05/12 07:19:37;;;;;;;1.08;0.50;;;18.50;67.00;;;;;;4945500;28;20031;-72
2022/05/12 07:26:35;;;;;;;1.35;0.52;;;18.70;66.70;;;;;;4957151;28;20487;-73
2022/05/12 07:27:38;;;;;;;1.55;0.60;;;18.80;65.50;;;;;;4955116;28;20074;-72
2022/05/12 07:30:06;;;;;;;3.90;0.77;;;19.00;65.30;;;;;;4955484;28;20142;-72
2022/05/12 07:32:32;;;;;;;1.45;0.70;;;19.30;65.60;;;;;;4938566;28;20043;-74
2022/05/12 07:34:58;;;;;;;3.50;0.70;;;19.40;64.00;;;;;;4955349;28;20094;-74
2022/05/12 07:37:24;;;;;;;0.65;0.43;;;19.20;62.50;;;;;;4957868;28;20039;-73
2022/05/12 07:39:50;;;;;;;4.32;1.90;;;19.00;64.80;;;;;;4958010;28;20075;-72
2022/05/12 07:42:15;;;;;;;1.45;0.60;;;18.80;64.30;;;;;;4952354;28;20071;-73
2022/05/12 07:44:41;;;;;;;0.65;0.43;;;18.60;64.10;;;;;;4953035;28;20027;-72
2022/05/12 07:47:13;;;;;;;2.03;0.50;;;18.60;65.50;;;;;;4949512;28;20041;-72
2022/05/12 07:49:40;;;;;;;2.53;0.70;;;18.50;65.50;;;;;;4963190;28;20062;-72
2022/05/12 07:52:08;;;;;;;3.35;0.63;;;18.70;65.40;;;;;;4956867;28;20027;-72
2022/05/12 07:54:36;;;;;;;1.60;0.50;;;19.00;63.00;;;;;;4958509;28;20499;-73
2022/05/12 07:57:02;;;;;;;1.27;0.50;;;19.10;62.10;;;;;;4955559;28;20447;-73
2022/05/12 07:59:29;;;;;;;2.30;0.63;;;19.10;62.40;;;;;;4958364;28;20118;-72
2022/05/12 08:01:56;;;;;;;4.20;0.75;;;19.20;62.50;;;;;;4955219;28;20035;-72
2022/05/12 08:04:22;;;;;;;1.60;1.08;;;19.30;61.30;;;;;;4952983;28;20035;-72
2022/05/12 08:06:48;;;;;;;1.02;0.50;;;19.50;61.40;;;;;;4954730;28;20053;-72
2022/05/12 08:09:15;;;;;;;1.25;0.47;;;19.80;60.30;;;;;;4955655;28;20046;-73
2022/05/12 08:11:41;;;;;;;0.30;0.30;;;20.10;61.20;;;;;;4954566;28;20018;-73
2022/05/12 08:14:06;;;;;;;2.30;0.63;;;20.40;58.70;;;;;;4954021;28;20089;-72
2022/05/12 08:16:32;;;;;;;2.63;0.50;;;20.70;59.90;;;;;;4950814;28;20034;-71
2022/05/12 08:18:58;;;;;;;0.75;0.57;;;20.70;57.60;;;;;;4948910;28;20066;-74
2022/05/12 08:21:24;;;;;;;4.38;0.73;;;20.40;56.50;;;;;;4953747;28;20516;-72
2022/05/12 08:23:50;;;;;;;2.33;0.50;;;20.10;60.40;;;;;;4956299;28;20042;-74
2022/05/12 08:26:16;;;;;;;0.57;0.50;;;20.20;60.00;;;;;;4954801;28;20193;-71
2022/05/12 08:28:42;;;;;;;1.05;0.60;;;20.40;58.70;;;;;;4934895;28;20039;-71
2022/05/12 08:31:09;;;;;;;2.13;0.57;;;20.30;58.30;;;;;;4956751;28;20041;-72
2022/05/12 08:33:35;;;;;;;1.63;0.47;;;20.20;57.60;;;;;;4949131;28;20113;-72
2022/05/12 08:36:00;;;;;;;2.50;0.32;;;20.10;56.10;;;;;;4949624;28;20467;-71
2022/05/12 08:38:26;;;;;;;1.17;0.52;;;20.00;58.40;;;;;;4951688;28;20035;-71
2022/05/12 08:41:01;;;;;;;1.88;0.60;;;20.10;57.40;;;;;;4958246;28;20038;-71
2022/05/12 08:43:38;;;;;;;2.08;0.82;;;20.00;57.30;;;;;;4955539;28;20081;-71
2022/05/12 08:46:10;;;;;;;0.65;0.40;;;20.00;56.70;;;;;;4948259;28;20122;-71
2022/05/12 08:48:43;;;;;;;2.53;0.63;;;20.30;57.60;;;;;;4960226;28;20031;-70
2022/05/12 08:51:12;;;;;;;2.40;0.70;;;20.80;55.90;;;;;;4954990;28;20118;-71
2022/05/12 08:53:56;;;;;;;0.90;0.50;;;21.30;54.60;;;;;;4956365;28;20717;-71
2022/05/12 08:56:23;;;;;;;3.47;0.80;;;21.30;54.50;;;;;;4955695;28;20845;-72
2022/05/12 08:58:53;;;;;;;1.42;0.50;;;21.10;52.50;;;;;;4955319;28;20034;-70
2022/05/12 09:01:38;;;;;;;2.33;0.80;;;21.00;53.40;;;;;;4951907;28;20065;-71
2022/05/12 09:04:33;;;;;;;1.25;0.60;;;20.60;52.60;;;;;;4949963;28;20038;-71
2022/05/12 09:07:09;;;;;;;4.25;0.70;;;20.40;54.10;;;;;;4955198;28;20047;-71
2022/05/12 09:09:55;;;;;;;2.15;0.80;;;20.40;53.70;;;;;;4955653;28;20026;-71
2022/05/12 09:12:37;;;;;;;0.98;0.85;;;20.60;52.20;;;;;;4956911;28;20122;-76
2022/05/12 09:15:12;;;;;;;1.85;0.60;;;21.10;51.80;;;;;;4953832;28;20035;-71
2022/05/12 09:17:44;;;;;;;2.38;0.70;;;21.70;49.90;;;;;;4952968;28;20027;-69
2022/05/12 09:20:11;;;;;;;2.75;0.73;;;21.80;51.00;;;;;;4953297;28;20046;-70
2022/05/12 09:22:39;;;;;;;2.38;0.60;;;21.80;49.60;;;;;;4954841;28;20120;-69
2022/05/12 09:25:06;;;;;;;2.63;0.60;;;21.50;50.30;;;;;;4955650;28;20034;-71
2022/05/12 09:27:35;;;;;;;2.60;0.52;;;21.50;52.30;;;;;;4955908;28;20078;-71
2022/05/12 09:30:04;;;;;;;3.30;0.63;;;21.70;51.60;;;;;;4958150;28;20034;-71
2022/05/12 09:32:33;;;;;;;4.43;0.60;;;22.00;49.10;;;;;;4951736;28;20031;-71
2022/05/12 09:35:11;;;;;;;1.15;0.73;;;22.20;47.80;;;;;;4951541;28;20066;-70
2022/05/12 09:37:40;;;;;;;3.70;0.70;;;22.50;47.10;;;;;;4948886;28;20050;-71
2022/05/12 09:40:46;;;;;;;2.92;0.50;;;22.50;46.90;;;;;;4952152;28;20126;-70
2022/05/12 09:43:31;;;;;;;3.53;0.73;;;22.40;47.00;;;;;;4951372;28;20038;-70
2022/05/12 09:46:21;;;;;;;2.20;0.70;;;22.10;46.70;;;;;;4952762;28;20051;-69
2022/05/12 09:48:49;;;;;;;3.53;0.90;;;22.00;48.60;;;;;;4948449;28;20037;-69
2022/05/12 09:51:34;;;;;;;1.42;0.68;;;22.10;50.70;;;;;;4949758;28;20727;-69
2022/05/12 09:54:23;;;;;;;0.90;0.47;;;22.20;50.90;;;;;;4949469;28;20059;-69
2022/05/12 09:57:12;;;;;;;1.98;0.60;;;22.20;49.50;;;;;;4952440;28;20038;-73
2022/05/12 09:59:40;;;;;;;1.73;0.60;;;22.50;49.10;;;;;;4944384;28;20061;-73
2022/05/12 10:08:22;;;;;;;6.55;0.77;;;22.70;48.40;;;;;;4952725;28;20484;-74
2022/05/12 10:10:55;;;;;;;2.88;0.52;;;22.20;48.80;;;;;;4953144;28;20035;-74
2022/05/12 10:13:48;;;;;;;4.57;1.00;;;22.10;46.90;;;;;;4950352;28;20041;-70
2022/05/12 10:16:19;;;;;;;2.35;0.70;;;22.10;47.80;;;;;;4958836;28;20030;-70
2022/05/12 10:18:54;;;;;;;2.30;0.80;;;21.90;48.90;;;;;;4961454;28;20035;-70
2022/05/12 10:21:24;;;;;;;2.83;0.88;;;21.60;48.50;;;;;;4957850;28;20034;-71
2022/05/12 10:24:07;;;;;;;1.35;0.60;;;21.50;49.80;;;;;;4954301;28;20762;-70
2022/05/12 10:26:48;;;;;;;2.15;0.50;;;21.50;50.30;;;;;;4956013;28;20041;-71
2022/05/12 10:29:39;;;;;;;3.33;0.80;;;21.90;47.80;;;;;;4954388;28;20054;-72
2022/05/12 10:32:16;;;;;;;1.20;0.60;;;23.00;46.10;;;;;;4957512;28;20387;-72
2022/05/12 10:35:17;;;;;;;0.82;0.55;;;23.70;43.00;;;;;;4958187;28;20034;-72
2022/05/12 10:38:01;;;;;;;1.48;0.60;;;23.60;44.20;;;;;;4947794;28;20046;-71
2022/05/12 10:40:37;;;;;;;1.00;0.50;;;23.40;44.80;;;;;;4961017;28;20491;-70
2022/05/12 10:43:09;;;;;;;2.05;0.47;;;23.40;44.60;;;;;;4961935;28;20570;-70
2022/05/12 10:45:56;;;;;;;1.33;0.80;;;23.40;45.70;;;;;;4958220;28;20062;-71
2022/05/12 10:48:50;;;;;;;0.88;0.80;;;23.40;44.10;;;;;;4955454;28;20725;-74
2022/05/12 10:51:24;;;;;;;2.50;0.80;;;23.20;45.20;;;;;;4961665;28;20490;-74
2022/05/12 10:54:38;;;;;;;2.75;0.70;;;23.30;46.20;;;;;;4955533;28;20110;-72
2022/05/12 10:57:10;;;;;;;1.98;0.70;;;23.60;44.80;;;;;;4933565;28;20027;-72
2022/05/12 10:59:58;;;;;;;1.70;0.55;;;23.70;45.50;;;;;;4953405;28;20125;-72
2022/05/12 11:02:35;;;;;;;1.48;0.63;;;23.80;44.70;;;;;;4960595;28;20667;-72
2022/05/12 11:05:21;;;;;;;1.88;0.65;;;23.70;42.60;;;;;;4963693;28;20073;-70
2022/05/12 11:08:13;;;;;;;1.70;0.57;;;23.60;42.80;;;;;;4956998;28;20031;-71
2022/05/12 11:11:22;;;;;;;1.05;0.50;;;23.50;43.10;;;;;;4960244;28;20030;-71
2022/05/12 11:13:54;;;;;;;2.15;0.50;;;23.40;44.20;;;;;;4880603;29;20036;-71
2022/05/12 11:16:26;;;;;;;1.13;0.80;;;23.50;44.30;;;;;;4883248;29;20041;-73
2022/05/12 11:19:15;;;;;;;2.30;0.70;;;23.70;44.50;;;;;;4923673;28;20035;-74
2022/05/12 11:22:02;;;;;;;2.42;0.77;;;23.80;44.90;;;;;;4958318;28;20051;-73
2022/05/12 11:24:42;;;;;;;1.70;0.50;;;23.90;44.50;;;;;;4959119;28;20462;-69
2022/05/12 11:27:37;;;;;;;1.65;0.73;;;23.70;44.40;;;;;;4957734;28;20113;-71
2022/05/12 11:30:21;;;;;;;1.85;0.93;;;23.20;43.30;;;;;;4934570;28;20112;-69
2022/05/12 11:33:10;;;;;;;2.53;0.75;;;22.80;44.60;;;;;;4956310;28;20035;-72
2022/05/12 11:35:43;;;;;;;2.45;0.93;;;22.50;44.30;;;;;;4956114;28;20045;-70
2022/05/12 11:38:11;;;;;;;1.83;0.93;;;22.30;46.60;;;;;;4959261;28;20130;-71
2022/05/12 11:40:44;;;;;;;0.95;0.60;;;22.00;46.20;;;;;;4948781;28;20062;-71
2022/05/12 11:46:23;;;;;;;3.08;0.73;;;21.50;48.30;;;;;;4959863;28;20039;-75
2022/05/12 11:49:02;;;;;;;2.13;0.65;;;21.40;48.60;;;;;;4955959;28;20038;-70
2022/05/12 11:51:52;;;;;;;1.63;0.60;;;21.50;50.10;;;;;;4959931;28;20047;-73
2022/05/12 11:54:41;;;;;;;2.50;0.70;;;21.70;48.20;;;;;;4963501;28;20121;-71
2022/05/12 11:57:32;;;;;;;2.47;0.88;;;21.90;46.60;;;;;;4947917;28;20031;-72
2022/05/12 12:00:00;;;;;;;1.92;0.50;;;21.90;47.80;;;;;;4957618;28;20031;-72
2022/05/12 12:02:29;;;;;;;1.63;0.68;;;22.00;47.30;;;;;;4963155;28;20030;-71
2022/05/12 12:05:04;;;;;;;3.80;1.27;;;22.30;47.40;;;;;;4958604;28;20760;-72
2022/05/12 12:07:32;;;;;;;4.38;0.80;;;23.00;46.70;;;;;;4958388;28;20070;-70
2022/05/12 12:10:27;;;;;;;0.95;0.60;;;23.40;45.40;;;;;;4957394;28;20056;-71
2022/05/12 12:13:04;;;;;;;2.92;0.70;;;23.20;44.60;;;;;;4955909;28;20030;-71
2022/05/12 12:15:34;;;;;;;2.92;0.90;;;23.00;45.40;;;;;;4959566;28;21015;-71
2022/05/12 12:18:25;;;;;;;1.63;0.70;;;23.00;45.20;;;;;;4955642;28;20078;-71
2022/05/12 12:21:21;;;;;;;2.72;0.70;;;23.00;45.50;;;;;;4957682;28;20041;-72
2022/05/12 12:24:11;;;;;;;2.20;0.53;;;22.90;44.60;;;;;;4960142;28;20041;-71
2022/05/12 12:26:38;;;;;;;2.17;0.60;;;22.60;46.00;;;;;;4956128;28;20081;-72
2022/05/12 12:29:10;;;;;;;1.15;0.55;;;22.50;45.20;;;;;;4961655;28;20106;-72
2022/05/12 12:31:43;;;;;;;1.73;0.45;;;22.30;44.00;;;;;;4957021;28;20034;-71
2022/05/12 12:34:17;;;;;;;1.45;0.50;;;22.00;44.30;;;;;;4955758;28;20703;-70
2022/05/12 12:36:49;;;;;;;1.20;0.50;;;22.00;43.90;;;;;;4958799;28;20811;-71
2022/05/12 12:39:40;;;;;;;2.92;0.63;;;22.10;44.30;;;;;;4960348;28;20043;-71
2022/05/12 12:42:16;;;;;;;1.75;0.50;;;22.00;45.70;;;;;;4955600;28;20066;-69
2022/05/12 12:44:53;;;;;;;0.50;0.50;;;21.90;46.40;;;;;;4949889;28;20050;-72
2022/05/12 12:47:28;;;;;;;1.75;0.68;;;21.90;45.50;;;;;;4952765;28;20174;-72
2022/05/12 12:50:05;;;;;;;2.10;0.50;;;21.90;45.60;;;;;;4962659;28;20118;-70
2022/05/12 12:52:31;;;;;;;4.53;0.60;;;21.80;45.90;;;;;;4944960;28;20034;-72
2022/05/12 12:57:48;;;;;;;1.73;0.60;;;21.50;47.40;;;;;;4952687;28;20168;-72
2022/05/12 13:00:33;;;;;;;1.25;0.57;;;21.70;46.80;;;;;;4952795;28;20565;-72
2022/05/12 13:03:06;;;;;;;1.88;0.60;;;21.70;46.00;;;;;;4951917;28;20939;-72
2022/05/12 13:05:34;;;;;;;2.92;0.60;;;21.80;46.00;;;;;;4956664;28;20034;-71
2022/05/12 13:08:19;;;;;;;1.65;0.50;;;21.70;46.10;;;;;;4954334;28;20766;-72
2022/05/12 13:10:48;;;;;;;3.80;0.60;;;21.70;47.20;;;;;;4954389;28;20035;-72
2022/05/12 13:13:13;;;;;;;2.15;0.90;;;21.90;47.40;;;;;;4960076;28;20639;-72
2022/05/12 13:15:45;;;;;;;2.10;0.80;;;22.20;47.50;;;;;;4954721;28;20042;-73
2022/05/12 13:18:23;;;;;;;1.50;0.70;;;22.40;46.10;;;;;;4955894;28;20156;-73
2022/05/12 13:20:51;;;;;;;1.10;0.70;;;22.60;44.90;;;;;;4937620;28;20068;-70
2022/05/12 13:23:25;;;;;;;2.30;0.75;;;22.80;45.90;;;;;;4957285;28;20213;-70